Wetter & Webcam

Wetterdaten Diepholz (ETND)

METAR
METAR text: ETND 071420Z 20003KT 9999 FEW250 03/M02 Q1040 BLU+ Conditions at: ETND (DIEPHOLZ (GER-AF, DE) observed 1420 UTC 07 February 2023 Temperature: 3.0°C (37°F) Dewpoint: -2.0°C (28°F) [RH = 70%] Pressure (altimeter): 30.71 inches Hg (1040.0 mb) Winds: from the SSW (200 degrees) at 3 MPH (3 knots; 1.5 m/s) Visibility: 6 or more miles (10+ km) Ceiling: at least 12,000 feet AGL Clouds: few clouds at 25000 feet AGL Weather: no significant weather observed at this time Forecast for: ETND (DIEPHOLZ (GER-AF, DE) Text: ETND 071112Z 0712/0721 12005KT 9999 NSW SKC BY ETGL Forecast period: 1200 to 2100 UTC 07 February 2023 Forecast type: FROM: standard forecast or significant change Winds: from the ESE (120 degrees) at 6 MPH (5 knots; 2.6 m/s) Visibility: 6 or more miles (10+ km) Clouds: clear skies Weather: NSW  (no significant weather) Sunrise (SR) / Sunset (SS)
06:58 / 16:23 UTC

Wetterdaten Bremen (EDDW)

METAR
METAR text: EDDW 071750Z AUTO 13004KT CAVOK 00/M03 Q1040 NOSIG Conditions at: EDDW (BREMEN , DE) observed 1750 UTC 07 February 2023 Temperature: 0.0°C (32°F) Dewpoint: -3.0°C (27°F) [RH = 80%] Pressure (altimeter): 30.71 inches Hg (1040.0 mb) Winds: from the SE (130 degrees) at 5 MPH (4 knots; 2.1 m/s) Visibility: 6 or more miles (10+ km) Ceiling: ceiling and visibility are OK Clouds: unknown Weather: no significant weather observed at this time Forecast for: EDDW (BREMEN , DE) Text: EDDW 071700Z 0718/0818 14004KT CAVOK Forecast period: 1800 UTC 07 February 2023 to 1800 UTC 08 February 2023 Forecast type: FROM: standard forecast or significant change Winds: from the SE (140 degrees) at 5 MPH (4 knots; 2.1 m/s) Visibility: 6 or more miles (10+ km) Ceiling: unknown Clouds: missing Weather: NSW  (no significant weather)

Copyright © 2022 Flugplatz Diepholz-Dümmerland

© 2022 Flugplatz Diepholz-Dümmerland